createdAt,value
2023-04-17T00:01:19.456Z,3.03
2023-04-17T00:03:48.587Z,3.13
2023-04-17T00:06:16.497Z,3.07
2023-04-17T00:08:44.637Z,3.20
2023-04-17T00:11:12.811Z,3.00
2023-04-17T00:13:40.793Z,3.10
2023-04-17T00:16:10.757Z,3.33
2023-04-17T00:18:40.166Z,3.27
2023-04-17T00:21:08.097Z,3.33
2023-04-17T00:23:36.075Z,3.07
2023-04-17T00:26:04.122Z,3.37
2023-04-17T00:28:31.998Z,4.07
2023-04-17T00:30:59.843Z,3.20
2023-04-17T00:33:28.105Z,3.47
2023-04-17T00:35:57.286Z,3.47
2023-04-17T00:38:25.167Z,3.80
2023-04-17T00:40:53.450Z,3.20
2023-04-17T00:43:21.291Z,3.13
2023-04-17T00:45:49.544Z,2.97
2023-04-17T00:48:18.456Z,3.77
2023-04-17T00:50:46.873Z,3.03
2023-04-17T00:53:16.322Z,3.30
2023-04-17T00:55:45.895Z,4.03
2023-04-17T00:58:14.492Z,3.53
2023-04-17T01:00:42.398Z,3.10
2023-04-17T01:03:10.753Z,3.50
2023-04-17T01:05:38.787Z,3.50
2023-04-17T01:08:06.755Z,3.40
2023-04-17T01:10:36.250Z,3.80
2023-04-17T01:13:04.994Z,2.77
2023-04-17T01:15:32.881Z,3.23
2023-04-17T01:18:01.232Z,3.00
2023-04-17T01:20:31.267Z,3.33
2023-04-17T01:22:59.670Z,3.30
2023-04-17T01:25:29.651Z,2.87
2023-04-17T01:27:57.729Z,3.03
2023-04-17T01:30:25.831Z,3.00
2023-04-17T01:32:55.201Z,3.07
2023-04-17T01:35:23.342Z,3.20
2023-04-17T01:37:51.375Z,3.07
2023-04-17T01:40:19.606Z,3.33
2023-04-17T01:42:49.125Z,2.87
2023-04-17T01:45:17.188Z,3.53
2023-04-17T01:47:45.532Z,3.07
2023-04-17T01:50:14.207Z,3.37
2023-04-17T01:52:42.081Z,3.40
2023-04-17T01:55:11.032Z,3.60
2023-04-17T01:57:38.978Z,2.73
2023-04-17T02:00:10.960Z,3.53
2023-04-17T02:02:39.287Z,3.07
2023-04-17T02:05:08.123Z,3.20
2023-04-17T02:07:36.184Z,3.53
2023-04-17T02:10:04.584Z,3.20
2023-04-17T02:12:32.407Z,3.30
2023-04-17T02:15:01.392Z,3.20
2023-04-17T02:17:31.060Z,3.20
2023-04-17T02:19:58.936Z,3.03
2023-04-17T02:22:26.800Z,3.10
2023-04-17T02:24:54.791Z,3.30
2023-04-17T02:27:22.654Z,3.17
2023-04-17T02:29:50.667Z,3.10
2023-04-17T02:32:18.697Z,3.00
2023-04-17T02:34:47.981Z,3.20
2023-04-17T02:37:15.941Z,2.97
2023-04-17T02:39:44.187Z,2.90
2023-04-17T02:42:13.122Z,3.57
2023-04-17T02:44:41.504Z,3.13
2023-04-17T02:47:10.030Z,3.23
2023-04-17T02:49:37.854Z,3.10
2023-04-17T02:52:07.209Z,3.20
2023-04-17T02:54:35.341Z,3.70
2023-04-17T02:57:03.220Z,3.40
2023-04-17T02:59:31.111Z,3.07
2023-04-17T03:01:59.849Z,4.10
2023-04-17T03:04:28.737Z,3.67
2023-04-17T03:06:56.644Z,3.43
2023-04-17T03:09:26.243Z,3.00
2023-04-17T03:11:54.223Z,3.47
2023-04-17T03:14:22.084Z,3.20
2023-04-17T03:16:50.165Z,3.70
2023-04-17T03:19:18.087Z,3.00
2023-04-17T03:21:46.273Z,3.73
2023-04-17T03:24:14.314Z,3.23
2023-04-17T03:26:43.575Z,3.53
2023-04-17T03:29:11.767Z,3.30
2023-04-17T03:31:39.954Z,3.60
2023-04-17T03:34:07.808Z,2.93
2023-04-17T03:36:36.414Z,3.60
2023-04-17T03:39:04.500Z,3.00
2023-04-17T03:41:32.344Z,3.03
2023-04-17T03:44:01.712Z,3.30
2023-04-17T03:46:29.931Z,3.60
2023-04-17T03:48:57.780Z,4.00
2023-04-17T03:51:27.149Z,3.27
2023-04-17T03:53:55.221Z,3.17
2023-04-17T03:56:23.123Z,4.10
2023-04-17T03:58:51.100Z,3.97
2023-04-17T04:01:20.485Z,3.47
2023-04-17T04:03:48.439Z,3.63
2023-04-17T04:06:20.382Z,3.40
2023-04-17T04:08:48.478Z,3.50
2023-04-17T04:11:16.423Z,3.67
2023-04-17T04:13:44.385Z,3.27
2023-04-17T04:16:12.365Z,3.30
2023-04-17T04:18:41.551Z,3.27
2023-04-17T04:21:09.856Z,2.93
2023-04-17T04:23:41.434Z,3.20
2023-04-17T04:26:09.353Z,3.63
2023-04-17T04:28:38.219Z,3.47
2023-04-17T04:31:07.048Z,4.20
2023-04-17T04:33:35.346Z,4.70
2023-04-17T04:36:04.671Z,3.27
2023-04-17T04:38:33.140Z,4.13
2023-04-17T04:41:06.456Z,3.30
2023-04-17T04:43:35.653Z,3.40
2023-04-17T04:46:03.713Z,3.47
2023-04-17T04:48:31.650Z,3.03
2023-04-17T04:50:59.802Z,3.93
2023-04-17T04:53:29.383Z,3.33
2023-04-17T04:55:57.280Z,2.80
2023-04-17T04:58:25.489Z,3.57
2023-04-17T05:00:53.658Z,2.93
2023-04-17T05:03:22.669Z,3.43
2023-04-17T05:05:51.533Z,3.83
2023-04-17T05:08:20.404Z,3.43
2023-04-17T05:10:49.927Z,2.63
2023-04-17T05:13:18.058Z,3.20
2023-04-17T05:15:45.904Z,2.67
2023-04-17T05:18:13.815Z,3.07
2023-04-17T05:20:42.030Z,3.10
2023-04-17T05:23:09.924Z,3.27
2023-04-17T05:25:38.027Z,2.90
2023-04-17T05:28:07.584Z,2.73
2023-04-17T05:30:35.497Z,3.03
2023-04-17T05:33:03.473Z,3.20
2023-04-17T05:35:31.521Z,2.47
2023-04-17T05:37:59.385Z,2.90
2023-04-17T05:40:27.287Z,2.80
2023-04-17T05:42:55.404Z,3.40
2023-04-17T05:45:25.760Z,2.70
2023-04-17T05:47:53.928Z,2.50
2023-04-17T05:50:22.079Z,2.40
2023-04-17T05:52:50.069Z,2.80
2023-04-17T05:55:20.140Z,3.23
2023-04-17T05:57:51.439Z,3.30
2023-04-17T06:00:22.763Z,2.70
2023-04-17T06:02:53.522Z,5.63
2023-04-17T06:05:21.897Z,4.57
2023-04-17T06:07:50.352Z,5.50
2023-04-17T06:10:18.681Z,3.40
2023-04-17T06:12:46.751Z,3.07
2023-04-17T06:15:14.598Z,2.57
2023-04-17T06:17:42.678Z,2.90
2023-04-17T06:20:12.581Z,3.40
2023-04-17T06:22:44.385Z,2.90
2023-04-17T06:25:12.283Z,3.63
2023-04-17T06:27:40.497Z,3.90
2023-04-17T06:30:10.364Z,3.30
2023-04-17T06:32:42.754Z,2.90
2023-04-17T06:35:12.652Z,3.00
2023-04-17T06:37:40.573Z,3.10
2023-04-17T06:40:09.764Z,4.37
2023-04-17T06:42:37.795Z,3.30
2023-04-17T06:45:06.350Z,3.67
2023-04-17T06:47:34.280Z,3.17
2023-04-17T06:50:02.457Z,2.80
2023-04-17T06:52:31.872Z,2.40
2023-04-17T06:55:00.182Z,2.60
2023-04-17T06:57:28.198Z,2.60
2023-04-17T06:59:57.716Z,2.60
2023-04-17T07:02:25.787Z,2.77
2023-04-17T07:04:55.122Z,2.20
2023-04-17T07:07:23.323Z,3.57
2023-04-17T07:09:52.586Z,3.97
2023-04-17T07:12:20.826Z,2.17
2023-04-17T07:14:48.892Z,2.90
2023-04-17T07:17:16.792Z,2.33
2023-04-17T07:19:44.815Z,2.95
2023-04-17T07:22:12.738Z,2.53
2023-04-17T07:24:40.739Z,2.30
2023-04-17T07:27:10.098Z,3.55
2023-04-17T07:29:38.139Z,4.25
2023-04-17T07:32:06.966Z,3.65
2023-04-17T07:34:35.315Z,3.13
2023-04-17T07:37:03.306Z,3.05
2023-04-17T07:39:31.789Z,2.45
2023-04-17T07:41:59.935Z,2.03
2023-04-17T07:44:29.470Z,2.00
2023-04-17T07:46:57.612Z,2.28
2023-04-17T07:49:25.729Z,2.33
2023-04-17T07:51:53.976Z,2.63
2023-04-17T07:54:21.950Z,2.65
2023-04-17T07:56:51.176Z,2.30
2023-04-17T07:59:19.169Z,3.30
2023-04-17T08:01:52.824Z,2.15
2023-04-17T08:04:21.285Z,2.88
2023-04-17T08:06:49.524Z,2.13
2023-04-17T08:09:17.517Z,2.08
2023-04-17T08:11:56.244Z,2.40
2023-04-17T08:14:25.563Z,2.63
2023-04-17T08:16:55.098Z,2.30
2023-04-17T08:19:22.977Z,2.20
2023-04-17T08:21:51.948Z,2.53
2023-04-17T08:24:20.219Z,3.60
2023-04-17T08:26:49.508Z,2.40
2023-04-17T08:29:17.584Z,2.22
2023-04-17T08:31:45.466Z,2.00
2023-04-17T08:34:15.740Z,1.90
2023-04-17T08:36:43.974Z,1.90
2023-04-17T08:39:12.428Z,3.40
2023-04-17T08:41:47.552Z,3.10
2023-04-17T08:44:20.241Z,4.13
2023-04-17T08:46:49.023Z,2.50
2023-04-17T08:49:18.368Z,2.20
2023-04-17T08:51:47.259Z,2.15
2023-04-17T08:54:15.338Z,2.10
2023-04-17T08:56:43.381Z,2.22
2023-04-17T08:59:11.467Z,2.00
2023-04-17T09:01:39.594Z,1.90
2023-04-17T09:04:07.824Z,1.95
2023-04-17T09:06:54.303Z,2.10
2023-04-17T09:09:22.434Z,2.35
2023-04-17T09:12:09.664Z,1.65
2023-04-17T09:14:37.582Z,2.25
2023-04-17T09:17:05.608Z,2.10
2023-04-17T09:19:35.837Z,2.30
2023-04-17T09:22:21.718Z,2.08
2023-04-17T09:24:49.641Z,1.95
2023-04-17T09:27:25.081Z,2.15
2023-04-17T09:30:04.837Z,1.95
2023-04-17T09:32:34.474Z,1.65
2023-04-17T09:35:04.904Z,1.85
2023-04-17T09:37:52.145Z,2.45
2023-04-17T09:40:21.422Z,1.90
2023-04-17T09:42:59.646Z,2.40
2023-04-17T09:45:33.136Z,1.98
2023-04-17T09:48:04.192Z,1.90
2023-04-17T09:50:34.381Z,2.28
2023-04-17T09:53:06.213Z,2.17
2023-04-17T09:55:35.919Z,2.75
2023-04-17T09:58:05.192Z,2.78
2023-04-17T10:00:33.298Z,2.22
2023-04-17T10:03:01.433Z,2.45
2023-04-17T10:05:33.806Z,1.95
2023-04-17T10:08:02.366Z,2.10
2023-04-17T10:10:34.102Z,1.83
2023-04-17T10:13:05.586Z,2.15
2023-04-17T10:15:34.820Z,2.45
2023-04-17T10:18:24.942Z,2.45
2023-04-17T10:20:55.311Z,2.20
2023-04-17T10:23:31.531Z,2.35
2023-04-17T10:26:39.417Z,1.80
2023-04-17T10:29:09.243Z,2.13
2023-04-17T10:32:17.498Z,3.53
2023-04-17T10:34:46.678Z,2.58
2023-04-17T10:37:16.221Z,2.28
2023-04-17T10:39:53.000Z,2.05
2023-04-17T10:42:21.982Z,1.67
2023-04-17T10:44:56.865Z,2.47
2023-04-17T10:47:33.587Z,1.77
2023-04-17T10:50:04.431Z,2.50
2023-04-17T10:52:44.609Z,1.92
2023-04-17T10:55:17.546Z,2.80
2023-04-17T10:58:00.749Z,1.80
2023-04-17T11:00:33.286Z,2.15
2023-04-17T11:03:03.687Z,1.80
2023-04-17T11:05:32.420Z,2.08
2023-04-17T11:08:00.794Z,2.40
2023-04-17T11:10:30.007Z,2.30
2023-04-17T11:12:57.835Z,2.45
2023-04-17T11:15:31.570Z,1.98
2023-04-17T11:18:00.430Z,2.55
2023-04-17T11:20:30.837Z,2.38
2023-04-17T11:23:02.441Z,2.10
2023-04-17T11:25:33.693Z,2.60
2023-04-17T11:28:03.099Z,1.98
2023-04-17T11:30:34.563Z,2.20
2023-04-17T11:33:04.443Z,2.20
2023-04-17T11:35:34.078Z,2.40
2023-04-17T11:38:14.192Z,2.53
2023-04-17T11:40:46.745Z,2.28
2023-04-17T11:43:15.126Z,3.22
2023-04-17T11:45:47.317Z,2.47
2023-04-17T11:48:16.585Z,1.92
2023-04-17T11:50:45.550Z,1.85
2023-04-17T11:53:18.402Z,1.98
2023-04-17T11:55:48.564Z,2.30
2023-04-17T11:58:16.818Z,2.22
2023-04-17T12:00:46.422Z,2.85
2023-04-17T12:03:35.325Z,2.30
2023-04-17T12:06:05.355Z,2.40
2023-04-17T12:08:43.680Z,2.10
2023-04-17T12:11:19.476Z,2.03
2023-04-17T12:13:48.799Z,2.15
2023-04-17T12:16:18.286Z,1.90
2023-04-17T12:18:46.787Z,2.10
2023-04-17T12:21:15.160Z,2.08
2023-04-17T12:23:43.375Z,2.00
2023-04-17T12:26:11.315Z,2.30
2023-04-17T12:28:39.493Z,2.63
2023-04-17T12:31:07.759Z,2.88
2023-04-17T12:33:36.987Z,2.30
2023-04-17T12:36:06.483Z,2.20
2023-04-17T12:38:34.486Z,2.70
2023-04-17T12:41:02.260Z,2.50
2023-04-17T12:43:30.122Z,2.30
2023-04-17T12:45:58.683Z,2.25
2023-04-17T12:48:26.674Z,3.30
2023-04-17T12:50:56.096Z,2.47
2023-04-17T12:53:24.310Z,2.30
2023-04-17T12:55:52.186Z,2.20
2023-04-17T12:58:20.573Z,2.05
2023-04-17T13:00:48.782Z,2.08
2023-04-17T13:03:16.833Z,2.20
2023-04-17T13:05:45.218Z,2.30
2023-04-17T13:08:16.455Z,2.53
2023-04-17T13:10:44.282Z,2.83
2023-04-17T13:13:12.268Z,2.90
2023-04-17T13:15:40.259Z,2.63
2023-04-17T13:18:08.266Z,1.77
2023-04-17T13:20:36.437Z,2.00
2023-04-17T13:23:04.426Z,1.90
2023-04-17T13:25:33.910Z,3.20
2023-04-17T13:28:01.909Z,2.17
2023-04-17T13:30:29.873Z,2.13
2023-04-17T13:32:57.680Z,2.70
2023-04-17T13:35:25.655Z,3.33
2023-04-17T13:37:55.055Z,2.45
2023-04-17T13:40:22.938Z,2.22
2023-04-17T13:42:52.638Z,1.70
2023-04-17T13:45:20.674Z,2.20
2023-04-17T13:47:48.564Z,2.97
2023-04-17T13:50:16.514Z,2.00
2023-04-17T13:52:44.549Z,3.35
2023-04-17T13:55:14.814Z,3.10
2023-04-17T13:57:42.808Z,2.30
2023-04-17T14:00:13.732Z,2.45
2023-04-17T14:02:42.700Z,3.55
2023-04-17T14:05:13.547Z,2.83
2023-04-17T14:07:43.779Z,2.95
2023-04-17T14:10:12.236Z,2.88
2023-04-17T14:12:40.145Z,2.35
2023-04-17T14:15:09.359Z,3.10
2023-04-17T14:17:42.961Z,2.53
2023-04-17T14:20:13.204Z,2.47
2023-04-17T14:22:41.024Z,2.65
2023-04-17T14:25:12.459Z,2.40
2023-04-17T14:27:40.609Z,2.20
2023-04-17T14:30:09.661Z,2.10
2023-04-17T14:32:39.676Z,5.20
2023-04-17T14:35:08.647Z,2.95
2023-04-17T14:37:36.629Z,2.50
2023-04-17T14:40:05.182Z,3.00
2023-04-17T14:42:40.810Z,2.30
2023-04-17T14:45:19.186Z,2.28
2023-04-17T14:47:48.649Z,2.90
2023-04-17T14:50:16.556Z,2.70
2023-04-17T14:52:44.491Z,1.90
2023-04-17T14:55:13.337Z,3.20
2023-04-17T14:57:41.411Z,2.03
2023-04-17T15:00:10.261Z,2.38
2023-04-17T15:02:39.579Z,2.75
2023-04-17T15:05:10.492Z,2.85
2023-04-17T15:07:38.286Z,2.50
2023-04-17T15:10:07.019Z,2.67
2023-04-17T15:12:34.969Z,2.58
2023-04-17T15:15:03.199Z,2.55
2023-04-17T15:17:31.340Z,2.33
2023-04-17T15:20:00.850Z,2.40
2023-04-17T15:22:30.131Z,3.88
2023-04-17T15:24:58.142Z,3.20
2023-04-17T15:27:26.169Z,2.47
2023-04-17T15:29:54.068Z,1.70
2023-04-17T15:32:22.124Z,1.70
2023-04-17T15:34:50.105Z,2.42
2023-04-17T15:37:17.982Z,3.72
2023-04-17T15:39:47.417Z,2.30
2023-04-17T15:42:15.543Z,2.22
2023-04-17T15:44:43.729Z,3.10
2023-04-17T15:47:11.669Z,2.70
2023-04-17T15:49:39.695Z,2.90
2023-04-17T15:52:08.355Z,2.80
2023-04-17T15:54:36.609Z,2.45
2023-04-17T15:57:06.038Z,2.40
2023-04-17T15:59:34.114Z,2.25
2023-04-17T16:02:04.079Z,2.53
2023-04-17T16:04:32.379Z,2.28
2023-04-17T16:07:00.461Z,2.50
2023-04-17T16:09:28.419Z,2.67
2023-04-17T16:11:57.197Z,2.47
2023-04-17T16:14:27.957Z,2.67
2023-04-17T16:16:55.897Z,2.38
2023-04-17T16:19:23.900Z,3.88
2023-04-17T16:21:51.740Z,3.25
2023-04-17T16:24:19.689Z,3.75
2023-04-17T16:26:47.700Z,2.78
2023-04-17T16:29:15.616Z,2.80
2023-04-17T16:31:45.120Z,2.17
2023-04-17T16:34:14.437Z,1.98
2023-04-17T16:36:45.295Z,3.35
2023-04-17T16:39:17.542Z,1.88
2023-04-17T16:41:46.932Z,3.55
2023-04-17T16:44:14.871Z,2.88
2023-04-17T16:47:09.471Z,3.30
2023-04-17T16:49:32.382Z,2.90
2023-04-17T16:52:00.552Z,2.15
2023-04-17T16:54:28.482Z,2.42
2023-04-17T16:56:56.470Z,2.05
2023-04-17T16:59:24.798Z,2.03
2023-04-17T17:01:54.074Z,3.85
2023-04-17T17:04:23.460Z,2.10
2023-04-17T17:06:52.698Z,1.75
2023-04-17T17:09:20.704Z,2.25
2023-04-17T17:11:49.058Z,1.90
2023-04-17T17:14:20.017Z,2.50
2023-04-17T17:16:47.943Z,2.25
2023-04-17T17:19:17.173Z,1.58
2023-04-17T17:21:45.215Z,2.22
2023-04-17T17:24:13.073Z,2.10
2023-04-17T17:26:40.978Z,1.85
2023-04-17T17:29:09.365Z,1.65
2023-04-17T17:31:37.269Z,2.35
2023-04-17T17:34:22.617Z,2.35
2023-04-17T17:36:54.895Z,2.10
2023-04-17T17:39:22.880Z,1.60
2023-04-17T17:41:50.795Z,2.10
2023-04-17T17:44:19.023Z,1.85
2023-04-17T17:46:47.092Z,1.83
2023-04-17T17:49:14.990Z,2.53
2023-04-17T17:51:45.942Z,2.20
2023-04-17T17:54:15.295Z,2.33
2023-04-17T17:56:44.333Z,1.83
2023-04-17T17:59:12.415Z,2.30
2023-04-17T18:01:40.581Z,2.10
2023-04-17T18:04:08.987Z,2.35
2023-04-17T18:06:37.251Z,2.78
2023-04-17T18:09:06.008Z,2.17
2023-04-17T18:11:35.322Z,1.70
2023-04-17T18:14:03.390Z,3.47
2023-04-17T18:16:32.724Z,2.40
2023-04-17T18:19:03.603Z,2.25
2023-04-17T18:24:00.320Z,3.58
2023-04-17T18:26:28.488Z,2.30
2023-04-17T18:28:57.812Z,2.88
2023-04-17T18:31:26.742Z,2.00
2023-04-17T18:33:55.086Z,1.58
2023-04-17T18:36:23.088Z,1.63
2023-04-17T18:38:51.049Z,2.72
2023-04-17T18:41:19.024Z,1.50
2023-04-17T18:43:46.947Z,1.70
2023-04-17T18:46:18.248Z,1.75
2023-04-17T18:48:46.320Z,1.90
2023-04-17T18:51:15.727Z,1.70
2023-04-17T18:53:43.679Z,1.80
2023-04-17T18:56:13.797Z,1.70
2023-04-17T18:58:42.041Z,1.47
2023-04-17T19:01:10.726Z,2.10
2023-04-17T19:03:41.911Z,2.07
2023-04-17T19:06:14.439Z,1.43
2023-04-17T19:08:42.815Z,1.60
2023-04-17T19:11:10.656Z,1.53
2023-04-17T19:13:38.824Z,2.17
2023-04-17T19:16:07.032Z,1.80
2023-04-17T19:18:34.976Z,1.90
2023-04-17T19:21:07.049Z,1.70
2023-04-17T19:23:35.050Z,1.40
2023-04-17T19:26:02.916Z,1.33
2023-04-17T19:28:31.212Z,1.33
2023-04-17T19:31:00.897Z,1.87
2023-04-17T19:33:28.810Z,1.73
2023-04-17T19:35:58.403Z,1.73
2023-04-17T19:38:27.995Z,2.53
2023-04-17T19:41:14.866Z,1.63
2023-04-17T19:43:43.152Z,2.03
2023-04-17T19:46:11.296Z,1.70
2023-04-17T19:48:39.271Z,1.40
2023-04-17T19:51:07.759Z,1.77
2023-04-17T19:53:38.498Z,1.20
2023-04-17T19:56:08.613Z,1.87
2023-04-17T19:58:37.563Z,2.40
2023-04-17T20:01:06.741Z,1.40
2023-04-17T20:03:35.769Z,1.93
2023-04-17T20:06:04.441Z,1.87
2023-04-17T20:08:32.498Z,1.63
2023-04-17T20:11:01.977Z,2.43
2023-04-17T20:13:30.067Z,1.87
2023-04-17T20:15:57.956Z,1.40
2023-04-17T20:18:26.143Z,1.23
2023-04-17T20:20:54.328Z,1.50
2023-04-17T20:23:22.421Z,1.63
2023-04-17T20:25:50.677Z,1.27
2023-04-17T20:28:20.132Z,1.33
2023-04-17T20:30:48.245Z,1.37
2023-04-17T20:33:16.310Z,1.30
2023-04-17T20:35:44.324Z,1.40
2023-04-17T20:38:12.227Z,1.77
2023-04-17T20:40:40.244Z,1.37
2023-04-17T20:43:08.416Z,1.50
2023-04-17T20:45:37.706Z,1.70
2023-04-17T20:48:06.983Z,1.37
2023-04-17T20:50:35.198Z,1.60
2023-04-17T20:53:05.543Z,1.30
2023-04-17T20:55:36.249Z,1.20
2023-04-17T20:58:04.311Z,1.50
2023-04-17T21:00:32.548Z,1.70
2023-04-17T21:03:02.879Z,1.60
2023-04-17T21:05:31.012Z,1.90
2023-04-17T21:07:58.917Z,1.57
2023-04-17T21:10:26.990Z,1.40
2023-04-17T21:12:56.039Z,1.53
2023-04-17T21:15:23.923Z,1.10
2023-04-17T21:17:51.972Z,1.50
2023-04-17T21:20:22.881Z,1.40
2023-04-17T21:22:52.793Z,1.60
2023-04-17T21:25:21.726Z,1.50
2023-04-17T21:27:49.606Z,1.47
2023-04-17T21:30:17.795Z,1.83
2023-04-17T21:32:47.522Z,1.43
2023-04-17T21:35:15.565Z,1.80
2023-04-17T21:37:44.804Z,1.47
2023-04-17T21:40:15.966Z,2.13
2023-04-17T21:42:45.999Z,1.23
2023-04-17T21:45:16.426Z,1.50
2023-04-17T21:47:44.379Z,1.70
2023-04-17T21:50:12.396Z,1.60
2023-04-17T21:52:40.670Z,1.40
2023-04-17T21:55:10.467Z,1.63
2023-04-17T21:57:38.848Z,1.53
2023-04-17T22:00:11.623Z,1.10
2023-04-17T22:02:39.761Z,1.23
2023-04-17T22:05:08.214Z,1.40
2023-04-17T22:07:43.975Z,1.30
2023-04-17T22:10:21.052Z,1.40
2023-04-17T22:12:49.190Z,1.40
2023-04-17T22:15:17.227Z,1.40
2023-04-17T22:17:45.437Z,1.80
2023-04-17T22:20:14.112Z,1.50
2023-04-17T22:22:42.025Z,1.50
2023-04-17T22:25:10.528Z,1.33
2023-04-17T22:27:39.929Z,1.60
2023-04-17T22:30:08.678Z,1.33
2023-04-17T22:32:36.634Z,1.50
2023-04-17T22:35:04.826Z,1.73
2023-04-17T22:37:32.856Z,1.70
2023-04-17T22:40:01.052Z,1.90
2023-04-17T22:42:29.036Z,1.60
2023-04-17T22:44:58.537Z,1.70
2023-04-17T22:47:26.580Z,1.50
2023-04-17T22:49:55.351Z,1.70
2023-04-17T22:52:23.213Z,1.40
2023-04-17T22:54:51.165Z,1.40
2023-04-17T22:57:19.198Z,1.70
2023-04-17T22:59:47.073Z,1.60
2023-04-17T23:02:16.736Z,1.57
2023-04-17T23:04:47.210Z,1.50
2023-04-17T23:07:15.120Z,1.50
2023-04-17T23:09:43.275Z,2.07
2023-04-17T23:12:11.374Z,1.70
2023-04-17T23:14:41.723Z,1.60
2023-04-17T23:17:11.517Z,1.50
2023-04-17T23:19:41.202Z,1.73
2023-04-17T23:22:09.196Z,1.70
2023-04-17T23:24:37.456Z,1.73
2023-04-17T23:27:05.644Z,1.80
2023-04-17T23:29:33.555Z,2.00
2023-04-17T23:32:01.548Z,1.33
2023-04-17T23:34:29.544Z,1.70
2023-04-17T23:36:58.785Z,1.80
2023-04-17T23:39:26.875Z,1.60
2023-04-17T23:41:54.936Z,1.60
2023-04-17T23:44:22.882Z,1.57
2023-04-17T23:46:51.280Z,1.50
2023-04-17T23:49:19.541Z,1.50
2023-04-17T23:51:47.423Z,1.70
2023-04-17T23:54:17.420Z,1.50
2023-04-17T23:56:45.412Z,1.67
2023-04-17T23:59:13.537Z,1.70
